sensor_id;sensor_type;location;lat;lon;timestamp;P1;durP1;ratioP1;P2;durP2;ratioP2
46447;SDS011;32145;50.390;30.778;2024-03-22T00:02:41;20.73;;;10.73;;
46447;SDS011;32145;50.390;30.778;2024-03-22T00:05:35;17.38;;;11.00;;
46447;SDS011;32145;50.390;30.778;2024-03-22T00:08:33;17.40;;;10.13;;
46447;SDS011;32145;50.390;30.778;2024-03-22T00:11:27;20.88;;;10.75;;
46447;SDS011;32145;50.390;30.778;2024-03-22T00:14:15;20.05;;;11.23;;
46447;SDS011;32145;50.390;30.778;2024-03-22T00:17:13;18.55;;;10.80;;
46447;SDS011;32145;50.390;30.778;2024-03-22T00:20:09;17.98;;;10.02;;
46447;SDS011;32145;50.390;30.778;2024-03-22T00:23:06;19.27;;;10.82;;
46447;SDS011;32145;50.390;30.778;2024-03-22T00:26:02;21.30;;;12.30;;
46447;SDS011;32145;50.390;30.778;2024-03-22T00:28:59;25.48;;;11.82;;
46447;SDS011;32145;50.390;30.778;2024-03-22T00:31:55;19.95;;;11.23;;
46447;SDS011;32145;50.390;30.778;2024-03-22T00:34:53;20.77;;;12.23;;
46447;SDS011;32145;50.390;30.778;2024-03-22T00:37:49;20.55;;;11.55;;
46447;SDS011;32145;50.390;30.778;2024-03-22T00:40:46;22.35;;;12.40;;
46447;SDS011;32145;50.390;30.778;2024-03-22T00:43:42;19.75;;;12.15;;
46447;SDS011;32145;50.390;30.778;2024-03-22T00:46:38;23.23;;;13.27;;
46447;SDS011;32145;50.390;30.778;2024-03-22T00:49:32;21.85;;;12.48;;
46447;SDS011;32145;50.390;30.778;2024-03-22T00:52:28;20.92;;;12.63;;
46447;SDS011;32145;50.390;30.778;2024-03-22T00:55:23;22.75;;;12.20;;
46447;SDS011;32145;50.390;30.778;2024-03-22T00:58:17;23.58;;;12.35;;
46447;SDS011;32145;50.390;30.778;2024-03-22T01:01:12;23.08;;;12.85;;
46447;SDS011;32145;50.390;30.778;2024-03-22T01:04:06;20.25;;;11.85;;
46447;SDS011;32145;50.390;30.778;2024-03-22T01:07:02;23.05;;;12.90;;
46447;SDS011;32145;50.390;30.778;2024-03-22T01:10:00;22.33;;;12.38;;
46447;SDS011;32145;50.390;30.778;2024-03-22T01:12:57;21.17;;;11.95;;
46447;SDS011;32145;50.390;30.778;2024-03-22T01:15:53;20.23;;;10.98;;
46447;SDS011;32145;50.390;30.778;2024-03-22T01:18:49;16.92;;;11.05;;
46447;SDS011;32145;50.390;30.778;2024-03-22T01:21:45;22.52;;;12.63;;
46447;SDS011;32145;50.390;30.778;2024-03-22T01:24:42;21.73;;;12.55;;
46447;SDS011;32145;50.390;30.778;2024-03-22T01:27:40;21.23;;;13.05;;
46447;SDS011;32145;50.390;30.778;2024-03-22T01:30:34;20.40;;;13.32;;
46447;SDS011;32145;50.390;30.778;2024-03-22T01:33:28;22.90;;;12.13;;
46447;SDS011;32145;50.390;30.778;2024-03-22T01:36:23;21.52;;;12.70;;
46447;SDS011;32145;50.390;30.778;2024-03-22T01:39:18;22.48;;;13.10;;
46447;SDS011;32145;50.390;30.778;2024-03-22T01:42:12;23.00;;;12.90;;
46447;SDS011;32145;50.390;30.778;2024-03-22T01:45:08;22.02;;;12.60;;
46447;SDS011;32145;50.390;30.778;2024-03-22T01:48:04;20.75;;;12.18;;
46447;SDS011;32145;50.390;30.778;2024-03-22T01:51:03;20.88;;;12.32;;
46447;SDS011;32145;50.390;30.778;2024-03-22T01:54:01;20.67;;;12.25;;
46447;SDS011;32145;50.390;30.778;2024-03-22T01:56:59;22.70;;;13.52;;
46447;SDS011;32145;50.390;30.778;2024-03-22T01:59:56;21.92;;;12.80;;
46447;SDS011;32145;50.390;30.778;2024-03-22T02:02:56;22.77;;;12.65;;
46447;SDS011;32145;50.390;30.778;2024-03-22T02:05:52;21.15;;;12.40;;
46447;SDS011;32145;50.390;30.778;2024-03-22T02:08:49;20.60;;;12.88;;
46447;SDS011;32145;50.390;30.778;2024-03-22T02:11:45;23.20;;;12.73;;
46447;SDS011;32145;50.390;30.778;2024-03-22T02:14:41;20.90;;;12.00;;
46447;SDS011;32145;50.390;30.778;2024-03-22T02:17:37;22.50;;;12.95;;
46447;SDS011;32145;50.390;30.778;2024-03-22T02:20:35;21.83;;;12.80;;
46447;SDS011;32145;50.390;30.778;2024-03-22T02:23:33;20.70;;;12.55;;
46447;SDS011;32145;50.390;30.778;2024-03-22T02:26:28;23.85;;;13.45;;
46447;SDS011;32145;50.390;30.778;2024-03-22T02:29:22;21.70;;;12.73;;
46447;SDS011;32145;50.390;30.778;2024-03-22T02:32:17;22.92;;;12.77;;
46447;SDS011;32145;50.390;30.778;2024-03-22T02:35:13;23.05;;;13.15;;
46447;SDS011;32145;50.390;30.778;2024-03-22T02:38:09;20.98;;;13.00;;
46447;SDS011;32145;50.390;30.778;2024-03-22T02:41:07;25.00;;;13.70;;
46447;SDS011;32145;50.390;30.778;2024-03-22T02:44:03;25.88;;;15.13;;
46447;SDS011;32145;50.390;30.778;2024-03-22T02:47:00;28.02;;;15.82;;
46447;SDS011;32145;50.390;30.778;2024-03-22T02:49:56;28.27;;;15.25;;
46447;SDS011;32145;50.390;30.778;2024-03-22T02:52:52;26.90;;;15.38;;
46447;SDS011;32145;50.390;30.778;2024-03-22T02:55:49;27.85;;;16.10;;
46447;SDS011;32145;50.390;30.778;2024-03-22T02:58:45;29.80;;;15.93;;
46447;SDS011;32145;50.390;30.778;2024-03-22T03:01:39;25.70;;;16.15;;
46447;SDS011;32145;50.390;30.778;2024-03-22T03:04:33;25.75;;;16.23;;
46447;SDS011;32145;50.390;30.778;2024-03-22T03:07:28;26.65;;;15.73;;
46447;SDS011;32145;50.390;30.778;2024-03-22T03:10:24;28.17;;;15.63;;
46447;SDS011;32145;50.390;30.778;2024-03-22T03:13:20;28.40;;;16.48;;
46447;SDS011;32145;50.390;30.778;2024-03-22T03:16:18;26.77;;;16.05;;
46447;SDS011;32145;50.390;30.778;2024-03-22T03:19:15;25.63;;;15.93;;
46447;SDS011;32145;50.390;30.778;2024-03-22T03:22:11;30.55;;;17.77;;
46447;SDS011;32145;50.390;30.778;2024-03-22T03:25:08;27.45;;;17.48;;
46447;SDS011;32145;50.390;30.778;2024-03-22T03:28:04;30.63;;;17.00;;
46447;SDS011;32145;50.390;30.778;2024-03-22T03:31:01;28.80;;;16.88;;
46447;SDS011;32145;50.390;30.778;2024-03-22T03:33:59;32.42;;;18.75;;
46447;SDS011;32145;50.390;30.778;2024-03-22T03:36:55;34.88;;;19.92;;
46447;SDS011;32145;50.390;30.778;2024-03-22T03:39:52;40.17;;;21.65;;
46447;SDS011;32145;50.390;30.778;2024-03-22T03:42:48;41.28;;;21.40;;
46447;SDS011;32145;50.390;30.778;2024-03-22T03:45:45;49.85;;;27.20;;
46447;SDS011;32145;50.390;30.778;2024-03-22T03:48:41;44.45;;;25.92;;
46447;SDS011;32145;50.390;30.778;2024-03-22T03:51:38;41.45;;;24.50;;
46447;SDS011;32145;50.390;30.778;2024-03-22T03:54:35;39.55;;;23.50;;
46447;SDS011;32145;50.390;30.778;2024-03-22T03:57:31;38.90;;;22.58;;
46447;SDS011;32145;50.390;30.778;2024-03-22T04:00:27;42.30;;;24.52;;
46447;SDS011;32145;50.390;30.778;2024-03-22T04:03:24;48.63;;;26.52;;
46447;SDS011;32145;50.390;30.778;2024-03-22T04:06:20;43.28;;;24.63;;
46447;SDS011;32145;50.390;30.778;2024-03-22T04:09:18;41.63;;;24.35;;
46447;SDS011;32145;50.390;30.778;2024-03-22T04:12:14;46.33;;;25.90;;
46447;SDS011;32145;50.390;30.778;2024-03-22T04:15:11;57.25;;;31.65;;
46447;SDS011;32145;50.390;30.778;2024-03-22T04:18:07;58.45;;;32.20;;
46447;SDS011;32145;50.390;30.778;2024-03-22T04:21:03;62.05;;;33.65;;
46447;SDS011;32145;50.390;30.778;2024-03-22T04:24:00;62.10;;;32.47;;
46447;SDS011;32145;50.390;30.778;2024-03-22T04:26:55;59.53;;;33.00;;
46447;SDS011;32145;50.390;30.778;2024-03-22T04:29:50;57.95;;;32.53;;
46447;SDS011;32145;50.390;30.778;2024-03-22T04:32:45;60.25;;;32.83;;
46447;SDS011;32145;50.390;30.778;2024-03-22T04:35:44;64.70;;;33.33;;
46447;SDS011;32145;50.390;30.778;2024-03-22T04:38:39;55.65;;;32.50;;
46447;SDS011;32145;50.390;30.778;2024-03-22T04:41:33;56.13;;;31.63;;
46447;SDS011;32145;50.390;30.778;2024-03-22T04:44:28;57.90;;;31.75;;
46447;SDS011;32145;50.390;30.778;2024-03-22T04:47:25;59.65;;;31.25;;
46447;SDS011;32145;50.390;30.778;2024-03-22T04:50:21;54.55;;;30.20;;
46447;SDS011;32145;50.390;30.778;2024-03-22T04:53:17;56.60;;;31.42;;
46447;SDS011;32145;50.390;30.778;2024-03-22T04:56:14;52.70;;;30.27;;
46447;SDS011;32145;50.390;30.778;2024-03-22T04:59:10;48.40;;;28.33;;
46447;SDS011;32145;50.390;30.778;2024-03-22T05:02:08;48.40;;;27.67;;
46447;SDS011;32145;50.390;30.778;2024-03-22T05:05:04;51.83;;;28.75;;
46447;SDS011;32145;50.390;30.778;2024-03-22T05:08:01;54.03;;;29.33;;
46447;SDS011;32145;50.390;30.778;2024-03-22T05:10:58;54.20;;;30.08;;
46447;SDS011;32145;50.390;30.778;2024-03-22T05:13:54;50.95;;;29.83;;
46447;SDS011;32145;50.390;30.778;2024-03-22T05:16:50;51.95;;;30.52;;
46447;SDS011;32145;50.390;30.778;2024-03-22T05:19:48;52.22;;;29.63;;
46447;SDS011;32145;50.390;30.778;2024-03-22T05:22:44;49.47;;;29.33;;
46447;SDS011;32145;50.390;30.778;2024-03-22T05:25:40;51.08;;;29.95;;
46447;SDS011;32145;50.390;30.778;2024-03-22T05:28:34;49.70;;;29.65;;
46447;SDS011;32145;50.390;30.778;2024-03-22T05:31:29;52.63;;;29.40;;
46447;SDS011;32145;50.390;30.778;2024-03-22T05:34:24;49.53;;;29.15;;
46447;SDS011;32145;50.390;30.778;2024-03-22T05:37:20;53.88;;;31.00;;
46447;SDS011;32145;50.390;30.778;2024-03-22T05:40:16;51.00;;;30.40;;
46447;SDS011;32145;50.390;30.778;2024-03-22T05:43:12;50.53;;;30.40;;
46447;SDS011;32145;50.390;30.778;2024-03-22T05:46:09;49.83;;;30.20;;
46447;SDS011;32145;50.390;30.778;2024-03-22T05:49:05;51.22;;;30.98;;
46447;SDS011;32145;50.390;30.778;2024-03-22T05:52:01;52.97;;;31.17;;
46447;SDS011;32145;50.390;30.778;2024-03-22T05:54:59;54.10;;;33.05;;
46447;SDS011;32145;50.390;30.778;2024-03-22T05:57:56;57.67;;;32.22;;
46447;SDS011;32145;50.390;30.778;2024-03-22T06:00:52;54.85;;;33.85;;
46447;SDS011;32145;50.390;30.778;2024-03-22T06:03:48;61.78;;;33.55;;
46447;SDS011;32145;50.390;30.778;2024-03-22T06:06:45;58.53;;;34.10;;
46447;SDS011;32145;50.390;30.778;2024-03-22T06:09:41;56.75;;;32.95;;
46447;SDS011;32145;50.390;30.778;2024-03-22T06:12:39;50.22;;;31.58;;
46447;SDS011;32145;50.390;30.778;2024-03-22T06:15:35;45.85;;;28.92;;
46447;SDS011;32145;50.390;30.778;2024-03-22T06:18:31;42.30;;;28.25;;
46447;SDS011;32145;50.390;30.778;2024-03-22T06:21:28;45.83;;;27.52;;
46447;SDS011;32145;50.390;30.778;2024-03-22T06:24:24;39.00;;;25.58;;
46447;SDS011;32145;50.390;30.778;2024-03-22T06:27:20;38.67;;;23.63;;
46447;SDS011;32145;50.390;30.778;2024-03-22T06:30:18;39.20;;;24.23;;
46447;SDS011;32145;50.390;30.778;2024-03-22T06:33:15;36.92;;;22.52;;
46447;SDS011;32145;50.390;30.778;2024-03-22T06:36:11;35.67;;;21.80;;
46447;SDS011;32145;50.390;30.778;2024-03-22T06:39:05;40.05;;;22.50;;
46447;SDS011;32145;50.390;30.778;2024-03-22T06:41:59;39.55;;;22.38;;
46447;SDS011;32145;50.390;30.778;2024-03-22T06:44:56;37.63;;;22.67;;
46447;SDS011;32145;50.390;30.778;2024-03-22T06:47:53;35.13;;;22.60;;
46447;SDS011;32145;50.390;30.778;2024-03-22T06:50:50;34.75;;;21.20;;
46447;SDS011;32145;50.390;30.778;2024-03-22T06:53:38;34.42;;;21.05;;
46447;SDS011;32145;50.390;30.778;2024-03-22T06:56:28;37.42;;;21.50;;
46447;SDS011;32145;50.390;30.778;2024-03-22T06:59:23;32.25;;;21.17;;
46447;SDS011;32145;50.390;30.778;2024-03-22T07:02:17;32.58;;;21.10;;
46447;SDS011;32145;50.390;30.778;2024-03-22T07:05:13;31.00;;;20.95;;
46447;SDS011;32145;50.390;30.778;2024-03-22T07:08:01;33.20;;;20.25;;
46447;SDS011;32145;50.390;30.778;2024-03-22T07:10:53;34.78;;;20.13;;
46447;SDS011;32145;50.390;30.778;2024-03-22T07:13:48;30.23;;;18.98;;
46447;SDS011;32145;50.390;30.778;2024-03-22T07:16:36;26.52;;;17.83;;
46447;SDS011;32145;50.390;30.778;2024-03-22T07:19:26;27.60;;;17.50;;
46447;SDS011;32145;50.390;30.778;2024-03-22T07:22:24;29.77;;;17.52;;
46447;SDS011;32145;50.390;30.778;2024-03-22T07:25:20;29.75;;;16.45;;
46447;SDS011;32145;50.390;30.778;2024-03-22T07:28:17;29.65;;;15.85;;
46447;SDS011;32145;50.390;30.778;2024-03-22T07:31:13;23.75;;;14.77;;
46447;SDS011;32145;50.390;30.778;2024-03-22T07:34:10;25.63;;;14.88;;
46447;SDS011;32145;50.390;30.778;2024-03-22T07:36:58;24.60;;;14.07;;
46447;SDS011;32145;50.390;30.778;2024-03-22T07:39:56;22.48;;;14.85;;
46447;SDS011;32145;50.390;30.778;2024-03-22T07:42:52;25.60;;;14.07;;
46447;SDS011;32145;50.390;30.778;2024-03-22T07:45:49;20.83;;;12.98;;
46447;SDS011;32145;50.390;30.778;2024-03-22T07:48:45;23.52;;;13.85;;
46447;SDS011;32145;50.390;30.778;2024-03-22T07:51:36;22.00;;;12.63;;
46447;SDS011;32145;50.390;30.778;2024-03-22T07:54:30;23.00;;;11.93;;
46447;SDS011;32145;50.390;30.778;2024-03-22T07:57:28;21.35;;;12.57;;
46447;SDS011;32145;50.390;30.778;2024-03-22T08:00:26;19.77;;;11.05;;
46447;SDS011;32145;50.390;30.778;2024-03-22T08:03:14;20.77;;;11.30;;
46447;SDS011;32145;50.390;30.778;2024-03-22T08:06:11;19.70;;;10.55;;
46447;SDS011;32145;50.390;30.778;2024-03-22T08:09:08;22.58;;;11.27;;
46447;SDS011;32145;50.390;30.778;2024-03-22T08:12:04;17.25;;;9.90;;
46447;SDS011;32145;50.390;30.778;2024-03-22T08:15:03;19.38;;;10.43;;
46447;SDS011;32145;50.390;30.778;2024-03-22T08:17:57;20.35;;;9.18;;
46447;SDS011;32145;50.390;30.778;2024-03-22T08:20:52;16.75;;;9.27;;
46447;SDS011;32145;50.390;30.778;2024-03-22T08:23:40;20.13;;;9.52;;
46447;SDS011;32145;50.390;30.778;2024-03-22T08:26:36;19.13;;;9.13;;
46447;SDS011;32145;50.390;30.778;2024-03-22T08:29:35;19.67;;;9.00;;
46447;SDS011;32145;50.390;30.778;2024-03-22T08:32:30;27.35;;;15.63;;
46447;SDS011;32145;50.390;30.778;2024-03-22T08:35:27;20.48;;;12.13;;
46447;SDS011;32145;50.390;30.778;2024-03-22T08:38:23;17.33;;;10.23;;
46447;SDS011;32145;50.390;30.778;2024-03-22T08:41:20;20.27;;;11.20;;
46447;SDS011;32145;50.390;30.778;2024-03-22T08:44:10;25.08;;;14.32;;
46447;SDS011;32145;50.390;30.778;2024-03-22T08:47:04;21.30;;;11.45;;
46447;SDS011;32145;50.390;30.778;2024-03-22T08:50:00;18.80;;;10.68;;
46447;SDS011;32145;50.390;30.778;2024-03-22T08:52:57;18.85;;;9.48;;
46447;SDS011;32145;50.390;30.778;2024-03-22T08:55:54;18.27;;;11.70;;
46447;SDS011;32145;50.390;30.778;2024-03-22T08:58:43;19.70;;;11.37;;
46447;SDS011;32145;50.390;30.778;2024-03-22T09:01:33;22.10;;;12.32;;
46447;SDS011;32145;50.390;30.778;2024-03-22T09:04:27;19.80;;;12.00;;
46447;SDS011;32145;50.390;30.778;2024-03-22T09:07:17;19.55;;;10.88;;
46447;SDS011;32145;50.390;30.778;2024-03-22T09:10:13;23.17;;;12.25;;
46447;SDS011;32145;50.390;30.778;2024-03-22T09:13:11;23.25;;;13.68;;
46447;SDS011;32145;50.390;30.778;2024-03-22T09:15:59;16.30;;;10.30;;
46447;SDS011;32145;50.390;30.778;2024-03-22T09:18:56;17.60;;;10.00;;
46447;SDS011;32145;50.390;30.778;2024-03-22T09:21:52;29.85;;;19.00;;
46447;SDS011;32145;50.390;30.778;2024-03-22T09:24:50;32.95;;;14.02;;
46447;SDS011;32145;50.390;30.778;2024-03-22T09:27:46;26.17;;;12.75;;
46447;SDS011;32145;50.390;30.778;2024-03-22T09:30:43;23.63;;;12.90;;
46447;SDS011;32145;50.390;30.778;2024-03-22T09:33:32;25.47;;;13.50;;
46447;SDS011;32145;50.390;30.778;2024-03-22T09:36:29;17.30;;;10.00;;
46447;SDS011;32145;50.390;30.778;2024-03-22T09:39:17;24.20;;;12.73;;
46447;SDS011;32145;50.390;30.778;2024-03-22T09:42:15;23.80;;;10.70;;
46447;SDS011;32145;50.390;30.778;2024-03-22T09:45:14;18.00;;;10.52;;
46447;SDS011;32145;50.390;30.778;2024-03-22T09:48:13;20.77;;;10.55;;
46447;SDS011;32145;50.390;30.778;2024-03-22T09:51:04;18.73;;;10.40;;
46447;SDS011;32145;50.390;30.778;2024-03-22T09:53:58;19.35;;;11.80;;
46447;SDS011;32145;50.390;30.778;2024-03-22T09:56:53;19.95;;;11.43;;
46447;SDS011;32145;50.390;30.778;2024-03-22T09:59:51;19.48;;;10.98;;
46447;SDS011;32145;50.390;30.778;2024-03-22T10:02:46;19.98;;;10.20;;
46447;SDS011;32145;50.390;30.778;2024-03-22T10:05:42;19.20;;;10.27;;
46447;SDS011;32145;50.390;30.778;2024-03-22T10:08:38;15.05;;;9.02;;
46447;SDS011;32145;50.390;30.778;2024-03-22T10:11:36;19.50;;;11.20;;
46447;SDS011;32145;50.390;30.778;2024-03-22T10:14:25;15.45;;;9.23;;
46447;SDS011;32145;50.390;30.778;2024-03-22T10:17:23;16.05;;;8.90;;
46447;SDS011;32145;50.390;30.778;2024-03-22T10:20:16;14.98;;;8.95;;
46447;SDS011;32145;50.390;30.778;2024-03-22T10:23:10;15.80;;;8.30;;
46447;SDS011;32145;50.390;30.778;2024-03-22T10:26:07;16.67;;;8.77;;
46447;SDS011;32145;50.390;30.778;2024-03-22T10:29:05;14.32;;;8.70;;
46447;SDS011;32145;50.390;30.778;2024-03-22T10:31:59;15.60;;;8.75;;
46447;SDS011;32145;50.390;30.778;2024-03-22T10:34:58;14.02;;;7.72;;
46447;SDS011;32145;50.390;30.778;2024-03-22T10:37:49;13.88;;;7.75;;
46447;SDS011;32145;50.390;30.778;2024-03-22T10:40:44;13.88;;;7.82;;
46447;SDS011;32145;50.390;30.778;2024-03-22T10:43:41;14.10;;;8.13;;
46447;SDS011;32145;50.390;30.778;2024-03-22T10:46:36;14.10;;;8.00;;
46447;SDS011;32145;50.390;30.778;2024-03-22T10:49:31;14.02;;;7.93;;
46447;SDS011;32145;50.390;30.778;2024-03-22T10:52:37;15.27;;;7.63;;
46447;SDS011;32145;50.390;30.778;2024-03-22T10:55:36;15.25;;;8.10;;
46447;SDS011;32145;50.390;30.778;2024-03-22T10:58:34;12.38;;;7.70;;
46447;SDS011;32145;50.390;30.778;2024-03-22T11:01:28;15.70;;;9.02;;
46447;SDS011;32145;50.390;30.778;2024-03-22T11:04:19;13.05;;;7.63;;
46447;SDS011;32145;50.390;30.778;2024-03-22T11:07:19;17.35;;;8.57;;
46447;SDS011;32145;50.390;30.778;2024-03-22T11:10:17;11.07;;;6.80;;
46447;SDS011;32145;50.390;30.778;2024-03-22T11:13:15;16.23;;;7.63;;
46447;SDS011;32145;50.390;30.778;2024-03-22T11:16:10;17.52;;;7.43;;
46447;SDS011;32145;50.390;30.778;2024-03-22T11:18:59;13.32;;;7.57;;
46447;SDS011;32145;50.390;30.778;2024-03-22T11:21:55;14.43;;;8.70;;
46447;SDS011;32145;50.390;30.778;2024-03-22T11:24:45;12.20;;;8.05;;
46447;SDS011;32145;50.390;30.778;2024-03-22T11:27:41;15.20;;;7.50;;
46447;SDS011;32145;50.390;30.778;2024-03-22T11:30:35;13.18;;;7.35;;
46447;SDS011;32145;50.390;30.778;2024-03-22T11:33:32;14.27;;;8.52;;
46447;SDS011;32145;50.390;30.778;2024-03-22T11:36:29;11.55;;;7.18;;
46447;SDS011;32145;50.390;30.778;2024-03-22T11:39:23;13.48;;;7.30;;
46447;SDS011;32145;50.390;30.778;2024-03-22T11:42:17;15.75;;;7.38;;
46447;SDS011;32145;50.390;30.778;2024-03-22T11:45:16;12.50;;;6.72;;
46447;SDS011;32145;50.390;30.778;2024-03-22T11:48:14;14.65;;;7.07;;
46447;SDS011;32145;50.390;30.778;2024-03-22T11:51:04;13.57;;;7.10;;
46447;SDS011;32145;50.390;30.778;2024-03-22T11:54:02;15.73;;;7.38;;
46447;SDS011;32145;50.390;30.778;2024-03-22T11:56:54;13.13;;;7.03;;
46447;SDS011;32145;50.390;30.778;2024-03-22T11:59:50;12.30;;;7.32;;
46447;SDS011;32145;50.390;30.778;2024-03-22T12:02:46;12.13;;;6.97;;
46447;SDS011;32145;50.390;30.778;2024-03-22T12:05:43;12.82;;;7.85;;
46447;SDS011;32145;50.390;30.778;2024-03-22T12:08:34;15.40;;;7.20;;
46447;SDS011;32145;50.390;30.778;2024-03-22T12:11:28;12.13;;;7.45;;
46447;SDS011;32145;50.390;30.778;2024-03-22T12:14:22;17.08;;;7.78;;
46447;SDS011;32145;50.390;30.778;2024-03-22T12:17:11;13.60;;;7.78;;
46447;SDS011;32145;50.390;30.778;2024-03-22T12:20:08;13.63;;;7.53;;
46447;SDS011;32145;50.390;30.778;2024-03-22T12:23:03;13.20;;;7.63;;
46447;SDS011;32145;50.390;30.778;2024-03-22T12:26:00;13.10;;;7.00;;
46447;SDS011;32145;50.390;30.778;2024-03-22T12:28:51;11.95;;;7.10;;
46447;SDS011;32145;50.390;30.778;2024-03-22T12:31:45;13.23;;;7.10;;
46447;SDS011;32145;50.390;30.778;2024-03-22T12:34:33;14.02;;;7.28;;
46447;SDS011;32145;50.390;30.778;2024-03-22T12:37:31;15.48;;;7.35;;
46447;SDS011;32145;50.390;30.778;2024-03-22T12:40:27;13.88;;;7.00;;
46447;SDS011;32145;50.390;30.778;2024-03-22T12:43:25;11.70;;;7.35;;
46447;SDS011;32145;50.390;30.778;2024-03-22T12:46:21;11.50;;;7.47;;
46447;SDS011;32145;50.390;30.778;2024-03-22T12:49:17;12.98;;;6.93;;
46447;SDS011;32145;50.390;30.778;2024-03-22T12:52:08;13.55;;;7.00;;
46447;SDS011;32145;50.390;30.778;2024-03-22T12:55:07;11.60;;;5.70;;
46447;SDS011;32145;50.390;30.778;2024-03-22T12:58:03;11.48;;;6.95;;
46447;SDS011;32145;50.390;30.778;2024-03-22T13:01:00;11.32;;;6.53;;
46447;SDS011;32145;50.390;30.778;2024-03-22T13:03:56;11.80;;;6.13;;
46447;SDS011;32145;50.390;30.778;2024-03-22T13:06:53;9.55;;;5.78;;
46447;SDS011;32145;50.390;30.778;2024-03-22T13:09:49;8.43;;;5.40;;
46447;SDS011;32145;50.390;30.778;2024-03-22T13:12:47;9.63;;;6.13;;
46447;SDS011;32145;50.390;30.778;2024-03-22T13:15:44;9.77;;;5.63;;
46447;SDS011;32145;50.390;30.778;2024-03-22T13:18:41;12.82;;;6.00;;
46447;SDS011;32145;50.390;30.778;2024-03-22T13:21:30;10.93;;;5.65;;
46447;SDS011;32145;50.390;30.778;2024-03-22T13:24:26;9.27;;;5.40;;
46447;SDS011;32145;50.390;30.778;2024-03-22T13:27:23;12.00;;;5.90;;
46447;SDS011;32145;50.390;30.778;2024-03-22T13:30:22;11.90;;;5.65;;
46447;SDS011;32145;50.390;30.778;2024-03-22T13:33:16;10.98;;;6.00;;
46447;SDS011;32145;50.390;30.778;2024-03-22T13:36:11;18.63;;;7.25;;
46447;SDS011;32145;50.390;30.778;2024-03-22T13:39:05;10.38;;;5.28;;
46447;SDS011;32145;50.390;30.778;2024-03-22T13:41:53;12.18;;;5.63;;
46447;SDS011;32145;50.390;30.778;2024-03-22T13:44:50;8.63;;;5.38;;
46447;SDS011;32145;50.390;30.778;2024-03-22T13:47:49;11.55;;;6.10;;
46447;SDS011;32145;50.390;30.778;2024-03-22T13:50:38;13.40;;;5.20;;
46447;SDS011;32145;50.390;30.778;2024-03-22T13:53:28;8.77;;;5.25;;
46447;SDS011;32145;50.390;30.778;2024-03-22T13:56:23;10.07;;;5.85;;
46447;SDS011;32145;50.390;30.778;2024-03-22T13:59:20;10.93;;;5.60;;
46447;SDS011;32145;50.390;30.778;2024-03-22T14:02:10;9.82;;;5.70;;
46447;SDS011;32145;50.390;30.778;2024-03-22T14:05:08;11.60;;;6.18;;
46447;SDS011;32145;50.390;30.778;2024-03-22T14:08:05;11.40;;;5.70;;
46447;SDS011;32145;50.390;30.778;2024-03-22T14:11:00;14.05;;;6.18;;
46447;SDS011;32145;50.390;30.778;2024-03-22T14:13:54;13.00;;;5.80;;
46447;SDS011;32145;50.390;30.778;2024-03-22T14:16:48;9.13;;;5.28;;
46447;SDS011;32145;50.390;30.778;2024-03-22T14:19:43;11.60;;;5.97;;
46447;SDS011;32145;50.390;30.778;2024-03-22T14:22:39;11.25;;;6.28;;
46447;SDS011;32145;50.390;30.778;2024-03-22T14:25:33;13.45;;;5.97;;
46447;SDS011;32145;50.390;30.778;2024-03-22T14:28:29;10.73;;;5.43;;
46447;SDS011;32145;50.390;30.778;2024-03-22T14:31:25;9.82;;;6.00;;
46447;SDS011;32145;50.390;30.778;2024-03-22T14:34:20;10.32;;;6.63;;
46447;SDS011;32145;50.390;30.778;2024-03-22T14:37:14;10.98;;;5.60;;
46447;SDS011;32145;50.390;30.778;2024-03-22T14:40:10;13.02;;;6.70;;
46447;SDS011;32145;50.390;30.778;2024-03-22T14:43:06;13.88;;;6.13;;
46447;SDS011;32145;50.390;30.778;2024-03-22T14:46:03;8.93;;;5.70;;
46447;SDS011;32145;50.390;30.778;2024-03-22T14:48:59;11.63;;;5.50;;
46447;SDS011;32145;50.390;30.778;2024-03-22T14:51:55;9.65;;;5.80;;
46447;SDS011;32145;50.390;30.778;2024-03-22T14:54:51;13.60;;;5.80;;
46447;SDS011;32145;50.390;30.778;2024-03-22T14:57:46;10.73;;;5.40;;
46447;SDS011;32145;50.390;30.778;2024-03-22T15:00:41;26.70;;;13.25;;
46447;SDS011;32145;50.390;30.778;2024-03-22T15:03:35;12.40;;;6.80;;
46447;SDS011;32145;50.390;30.778;2024-03-22T15:06:29;11.07;;;6.22;;
46447;SDS011;32145;50.390;30.778;2024-03-22T15:09:23;24.40;;;12.57;;
46447;SDS011;32145;50.390;30.778;2024-03-22T15:12:20;16.85;;;8.40;;
46447;SDS011;32145;50.390;30.778;2024-03-22T15:15:18;19.30;;;9.98;;
46447;SDS011;32145;50.390;30.778;2024-03-22T15:18:14;19.75;;;9.95;;
46447;SDS011;32145;50.390;30.778;2024-03-22T15:21:10;14.82;;;7.05;;
46447;SDS011;32145;50.390;30.778;2024-03-22T15:24:06;13.07;;;6.50;;
46447;SDS011;32145;50.390;30.778;2024-03-22T15:27:03;13.48;;;6.18;;
46447;SDS011;32145;50.390;30.778;2024-03-22T15:29:59;12.35;;;5.88;;
46447;SDS011;32145;50.390;30.778;2024-03-22T15:32:57;12.20;;;5.93;;
46447;SDS011;32145;50.390;30.778;2024-03-22T15:35:51;11.68;;;7.75;;
46447;SDS011;32145;50.390;30.778;2024-03-22T15:38:45;15.00;;;6.80;;
46447;SDS011;32145;50.390;30.778;2024-03-22T15:41:40;12.00;;;6.60;;
46447;SDS011;32145;50.390;30.778;2024-03-22T15:44:34;16.33;;;7.43;;
46447;SDS011;32145;50.390;30.778;2024-03-22T15:47:29;19.55;;;8.98;;
46447;SDS011;32145;50.390;30.778;2024-03-22T15:50:24;18.95;;;9.70;;
46447;SDS011;32145;50.390;30.778;2024-03-22T15:53:21;45.45;;;21.50;;
46447;SDS011;32145;50.390;30.778;2024-03-22T15:56:17;29.17;;;13.00;;
46447;SDS011;32145;50.390;30.778;2024-03-22T15:59:13;20.98;;;9.88;;
46447;SDS011;32145;50.390;30.778;2024-03-22T16:02:10;32.72;;;11.70;;
46447;SDS011;32145;50.390;30.778;2024-03-22T16:05:06;23.10;;;11.35;;
46447;SDS011;32145;50.390;30.778;2024-03-22T16:08:05;21.17;;;9.10;;
46447;SDS011;32145;50.390;30.778;2024-03-22T16:11:01;22.48;;;8.80;;
46447;SDS011;32145;50.390;30.778;2024-03-22T16:13:58;15.18;;;7.68;;
46447;SDS011;32145;50.390;30.778;2024-03-22T16:16:54;11.93;;;6.40;;
46447;SDS011;32145;50.390;30.778;2024-03-22T16:19:50;14.00;;;6.88;;
46447;SDS011;32145;50.390;30.778;2024-03-22T16:22:46;15.48;;;8.23;;
46447;SDS011;32145;50.390;30.778;2024-03-22T16:25:44;14.32;;;7.55;;
46447;SDS011;32145;50.390;30.778;2024-03-22T16:28:41;17.35;;;8.00;;
46447;SDS011;32145;50.390;30.778;2024-03-22T16:31:37;17.33;;;8.05;;
46447;SDS011;32145;50.390;30.778;2024-03-22T16:34:31;17.65;;;7.38;;
46447;SDS011;32145;50.390;30.778;2024-03-22T16:37:25;14.70;;;6.82;;
46447;SDS011;32145;50.390;30.778;2024-03-22T16:40:20;17.15;;;8.40;;
46447;SDS011;32145;50.390;30.778;2024-03-22T16:43:15;15.38;;;8.50;;
46447;SDS011;32145;50.390;30.778;2024-03-22T16:46:10;19.77;;;10.02;;
46447;SDS011;32145;50.390;30.778;2024-03-22T16:49:04;17.85;;;10.30;;
46447;SDS011;32145;50.390;30.778;2024-03-22T16:52:00;17.40;;;10.30;;
46447;SDS011;32145;50.390;30.778;2024-03-22T16:54:56;19.27;;;12.20;;
46447;SDS011;32145;50.390;30.778;2024-03-22T16:57:53;22.90;;;12.45;;